Time;durP1;ratioP1;P1;durP2;ratioP2;P2;SDS_P1;SDS_P2;PMS_P1;PMS_P2;Temp;Humidity;BMP_temperature;BMP_pressure;BME280_temperature;BME280_humidity;BME280_pressure;Samples;Min_cycle;Max_cycle;Signal;HPM_P1;HPM_P2
2024/02/02 00:00:39;;;;;;;20.30;12.48;;;;;;;;;;10098372;28;20037;-76
2024/02/02 00:05:31;;;;;;;17.15;11.63;;;;;;;;;;10100281;28;20055;-75
2024/02/02 00:10:23;;;;;;;15.65;11.68;;;;;;;;;;10101089;28;20699;-76
2024/02/02 00:15:15;;;;;;;22.70;15.00;;;;;;;;;;10107146;28;20041;-76
2024/02/02 00:20:08;;;;;;;24.65;13.88;;;;;;;;;;10106859;28;20172;-76
2024/02/02 00:25:01;;;;;;;24.70;16.55;;;;;;;;;;10106945;28;20097;-76
2024/02/02 00:29:53;;;;;;;25.55;19.00;;;;;;;;;;10106700;28;20093;-76
2024/02/02 00:34:45;;;;;;;28.50;21.25;;;;;;;;;;10106079;28;20055;-76
2024/02/02 00:39:38;;;;;;;23.30;20.83;;;;;;;;;;10106077;28;20049;-76
2024/02/02 00:44:30;;;;;;;25.00;15.45;;;;;;;;;;10104984;28;20049;-76
2024/02/02 00:49:23;;;;;;;16.63;13.23;;;;;;;;;;10105445;28;20132;-76
2024/02/02 00:54:16;;;;;;;20.45;16.27;;;;;;;;;;10104145;28;20087;-76
2024/02/02 00:59:08;;;;;;;20.75;16.02;;;;;;;;;;10105562;28;20518;-76
2024/02/02 01:04:01;;;;;;;20.92;14.93;;;;;;;;;;10105528;28;20065;-74
2024/02/02 01:08:54;;;;;;;17.75;14.38;;;;;;;;;;10106638;28;20044;-74
2024/02/02 01:13:46;;;;;;;19.67;14.10;;;;;;;;;;10102902;28;20044;-74
2024/02/02 01:18:38;;;;;;;22.85;16.50;;;;;;;;;;10105832;28;20045;-77
2024/02/02 01:23:30;;;;;;;21.63;15.98;;;;;;;;;;10104142;28;20071;-77
2024/02/02 01:28:22;;;;;;;16.45;14.05;;;;;;;;;;10104027;28;20048;-75
2024/02/02 01:33:14;;;;;;;17.35;13.93;;;;;;;;;;10104959;28;20041;-77
2024/02/02 01:38:06;;;;;;;19.45;16.00;;;;;;;;;;10094992;28;20044;-76
2024/02/02 01:42:58;;;;;;;19.40;12.57;;;;;;;;;;10104317;28;20396;-76
2024/02/02 01:47:50;;;;;;;21.33;14.70;;;;;;;;;;10104027;28;20431;-76
2024/02/02 01:52:42;;;;;;;25.30;18.80;;;;;;;;;;10103959;28;20088;-77
2024/02/02 01:57:34;;;;;;;19.60;15.77;;;;;;;;;;10101840;28;20646;-76
2024/02/02 02:02:26;;;;;;;34.72;25.15;;;;;;;;;;10105222;28;20044;-77
2024/02/02 02:07:18;;;;;;;28.88;22.27;;;;;;;;;;10102822;28;20045;-77
2024/02/02 02:12:11;;;;;;;20.63;15.63;;;;;;;;;;10103432;28;20544;-76
2024/02/02 02:17:03;;;;;;;16.08;11.95;;;;;;;;;;10102967;28;20079;-76
2024/02/02 02:21:55;;;;;;;13.88;11.27;;;;;;;;;;10102711;28;20119;-77
2024/02/02 02:26:47;;;;;;;16.73;11.50;;;;;;;;;;10102292;28;20051;-77
2024/02/02 02:31:40;;;;;;;14.65;11.90;;;;;;;;;;10102711;28;20061;-77
2024/02/02 02:36:32;;;;;;;18.45;12.48;;;;;;;;;;10102551;28;20475;-77
2024/02/02 02:41:24;;;;;;;16.50;11.50;;;;;;;;;;10101353;28;20049;-76
2024/02/02 02:46:16;;;;;;;12.75;9.90;;;;;;;;;;10092692;28;20383;-75
2024/02/02 02:51:08;;;;;;;13.38;10.02;;;;;;;;;;10085405;28;20132;-74
2024/02/02 02:56:00;;;;;;;13.18;9.32;;;;;;;;;;10093043;28;20132;-76
2024/02/02 03:00:53;;;;;;;13.95;9.30;;;;;;;;;;10101673;28;20049;-76
2024/02/02 03:05:45;;;;;;;18.02;9.55;;;;;;;;;;10102293;28;20444;-75
2024/02/02 03:10:38;;;;;;;16.38;9.00;;;;;;;;;;10100603;28;20127;-76
2024/02/02 03:15:31;;;;;;;11.95;8.93;;;;;;;;;;10101449;28;20064;-75
2024/02/02 03:20:26;;;;;;;13.13;8.60;;;;;;;;;;10101682;28;20087;-75
2024/02/02 03:25:18;;;;;;;13.07;8.25;;;;;;;;;;10101702;28;20044;-75
2024/02/02 03:30:10;;;;;;;13.13;8.80;;;;;;;;;;10100254;28;20041;-76
2024/02/02 03:35:03;;;;;;;14.77;8.20;;;;;;;;;;10101087;28;20041;-75
2024/02/02 03:39:55;;;;;;;11.95;8.60;;;;;;;;;;10101150;28;20507;-75
2024/02/02 03:44:47;;;;;;;10.13;7.68;;;;;;;;;;10102087;28;20049;-76
2024/02/02 03:49:39;;;;;;;13.10;9.18;;;;;;;;;;10108209;28;20092;-76
2024/02/02 03:54:31;;;;;;;12.70;8.45;;;;;;;;;;10109063;28;20057;-76
2024/02/02 03:59:23;;;;;;;12.02;10.07;;;;;;;;;;10108023;28;20120;-76
2024/02/02 04:04:16;;;;;;;12.82;9.27;;;;;;;;;;10109319;28;20052;-76
2024/02/02 04:09:08;;;;;;;18.30;12.25;;;;;;;;;;10108517;28;20107;-76
2024/02/02 04:14:00;;;;;;;15.25;12.52;;;;;;;;;;10108331;28;20425;-76
2024/02/02 04:18:52;;;;;;;13.02;9.55;;;;;;;;;;10107670;28;20065;-76
2024/02/02 04:23:44;;;;;;;14.23;10.93;;;;;;;;;;10107981;28;20060;-75
2024/02/02 04:28:36;;;;;;;14.85;10.10;;;;;;;;;;10107474;28;20392;-76
2024/02/02 04:33:28;;;;;;;21.80;16.92;;;;;;;;;;10107782;28;20148;-76
2024/02/02 04:38:20;;;;;;;22.70;14.95;;;;;;;;;;10104884;28;20126;-75
2024/02/02 04:43:13;;;;;;;13.55;10.38;;;;;;;;;;10107269;28;20124;-76
2024/02/02 04:48:05;;;;;;;13.35;9.98;;;;;;;;;;10107143;28;20446;-76
2024/02/02 04:52:58;;;;;;;12.57;10.10;;;;;;;;;;10106623;28;20475;-76
2024/02/02 04:57:50;;;;;;;14.13;9.88;;;;;;;;;;10103597;28;21108;-75
2024/02/02 05:02:42;;;;;;;11.65;9.07;;;;;;;;;;10105893;28;20043;-75
2024/02/02 05:07:35;;;;;;;11.35;8.90;;;;;;;;;;10106524;28;20472;-75
2024/02/02 05:12:27;;;;;;;10.95;8.20;;;;;;;;;;10105723;28;20045;-76
2024/02/02 05:17:19;;;;;;;13.48;7.82;;;;;;;;;;10104603;28;20098;-75
2024/02/02 05:22:11;;;;;;;14.55;9.05;;;;;;;;;;10105240;28;20081;-76
2024/02/02 05:27:03;;;;;;;201.93;115.65;;;;;;;;;;10105330;28;20135;-75
2024/02/02 05:31:55;;;;;;;26.67;18.90;;;;;;;;;;10105571;28;20048;-76
2024/02/02 05:36:48;;;;;;;15.43;10.25;;;;;;;;;;10105331;28;20040;-75
2024/02/02 05:41:40;;;;;;;16.73;13.80;;;;;;;;;;10104536;28;20041;-76
2024/02/02 05:46:32;;;;;;;13.82;12.32;;;;;;;;;;10104544;28;20340;-75
2024/02/02 05:51:27;;;;;;;11.48;9.20;;;;;;;;;;10103146;28;20033;-75
2024/02/02 05:56:21;;;;;;;16.98;14.18;;;;;;;;;;10105898;28;20053;-76
2024/02/02 06:01:13;;;;;;;13.73;11.90;;;;;;;;;;10103422;28;20040;-76
2024/02/02 06:06:05;;;;;;;11.95;10.60;;;;;;;;;;10101963;28;20049;-76
2024/02/02 06:10:57;;;;;;;12.85;11.40;;;;;;;;;;10101386;28;20049;-76
2024/02/02 06:15:49;;;;;;;16.23;13.32;;;;;;;;;;10091487;28;20492;-76
2024/02/02 06:20:41;;;;;;;12.65;10.45;;;;;;;;;;10103593;28;20037;-76
2024/02/02 06:25:33;;;;;;;11.10;8.25;;;;;;;;;;10101263;28;20065;-76
2024/02/02 06:30:26;;;;;;;14.50;10.48;;;;;;;;;;10098867;28;20041;-76
2024/02/02 06:35:18;;;;;;;11.23;9.13;;;;;;;;;;10098771;28;20079;-73
2024/02/02 06:40:11;;;;;;;18.20;11.30;;;;;;;;;;10098439;28;20463;-74
2024/02/02 06:45:03;;;;;;;19.30;13.50;;;;;;;;;;10099412;28;20037;-77
2024/02/02 06:49:55;;;;;;;83.22;43.45;;;;;;;;;;10095725;28;20045;-74
2024/02/02 06:54:47;;;;;;;44.55;27.83;;;;;;;;;;10100595;28;20037;-74
2024/02/02 06:59:42;;;;;;;70.00;41.33;;;;;;;;;;10096168;28;20045;-75
2024/02/02 07:04:34;;;;;;;29.45;20.60;;;;;;;;;;10101142;28;20064;-75
2024/02/02 07:09:31;;;;;;;30.65;19.98;;;;;;;;;;10099812;28;20041;-74
2024/02/02 07:14:36;;;;;;;30.00;25.42;;;;;;;;;;10097885;28;20041;-74
2024/02/02 07:19:40;;;;;;;8.80;7.30;;;;;;;;;;10099237;28;20048;-74
2024/02/02 07:24:32;;;;;;;22.77;18.10;;;;;;;;;;10107649;28;20108;-74
2024/02/02 07:29:38;;;;;;;23.45;16.80;;;;;;;;;;10098267;28;20357;-76
2024/02/02 07:34:42;;;;;;;37.00;27.08;;;;;;;;;;10094380;28;20114;-74
2024/02/02 07:39:34;;;;;;;20.10;14.93;;;;;;;;;;10070113;28;20116;-73
2024/02/02 07:44:26;;;;;;;15.50;11.65;;;;;;;;;;10088320;28;20344;-73
2024/02/02 07:49:19;;;;;;;16.70;10.98;;;;;;;;;;10110752;28;20491;-73
2024/02/02 07:54:11;;;;;;;16.85;10.70;;;;;;;;;;10078657;28;20111;-74
2024/02/02 07:59:03;;;;;;;16.88;12.70;;;;;;;;;;10101665;28;20076;-73
2024/02/02 08:03:55;;;;;;;18.52;11.75;;;;;;;;;;10106428;28;20124;-74
2024/02/02 08:08:47;;;;;;;12.43;10.15;;;;;;;;;;10103624;28;20128;-73
2024/02/02 08:13:39;;;;;;;15.05;11.25;;;;;;;;;;10100396;28;20075;-73
2024/02/02 08:18:32;;;;;;;12.60;9.52;;;;;;;;;;10102109;28;20114;-73
2024/02/02 08:23:27;;;;;;;13.63;10.43;;;;;;;;;;10096482;28;20136;-73
2024/02/02 08:28:19;;;;;;;13.02;10.25;;;;;;;;;;10099222;28;20123;-73
2024/02/02 08:33:13;;;;;;;13.10;10.25;;;;;;;;;;10100562;28;20376;-74
2024/02/02 08:38:07;;;;;;;12.63;10.27;;;;;;;;;;10104732;28;20049;-73
2024/02/02 08:42:59;;;;;;;17.25;10.30;;;;;;;;;;10102820;28;20060;-73
2024/02/02 08:47:51;;;;;;;15.82;12.02;;;;;;;;;;10100795;28;20052;-74
2024/02/02 08:52:43;;;;;;;20.88;11.93;;;;;;;;;;10097231;28;20476;-74
2024/02/02 08:58:10;;;;;;;12.82;11.30;;;;;;;;;;10103387;28;20048;-74
2024/02/02 09:03:08;;;;;;;12.38;9.43;;;;;;;;;;10101653;28;20041;-73
2024/02/02 09:08:08;;;;;;;13.17;10.03;;;;;;;;;;10104294;28;20075;-73
2024/02/02 09:13:01;;;;;;;12.30;9.75;;;;;;;;;;10102186;28;20381;-74
2024/02/02 09:17:54;;;;;;;14.50;11.48;;;;;;;;;;10103284;28;20067;-73
2024/02/02 09:22:46;;;;;;;16.88;13.68;;;;;;;;;;10103242;28;20045;-73
2024/02/02 09:27:41;;;;;;;17.77;14.65;;;;;;;;;;10102667;28;20210;-74
2024/02/02 09:32:33;;;;;;;16.25;14.55;;;;;;;;;;10103051;28;20421;-74
2024/02/02 09:37:33;;;;;;;17.85;15.65;;;;;;;;;;10101310;28;20065;-74
2024/02/02 09:42:28;;;;;;;20.92;16.42;;;;;;;;;;10099891;28;20110;-74
2024/02/02 09:47:49;;;;;;;26.63;16.50;;;;;;;;;;10097931;28;20056;-74
2024/02/02 09:53:07;;;;;;;19.98;16.27;;;;;;;;;;10100699;28;20052;-73
2024/02/02 09:58:23;;;;;;;17.45;15.02;;;;;;;;;;10094790;28;20053;-74
2024/02/02 10:03:26;;;;;;;16.83;14.73;;;;;;;;;;10101416;28;20084;-74
2024/02/02 10:08:38;;;;;;;17.55;15.20;;;;;;;;;;10101447;28;20530;-74
2024/02/02 10:14:16;;;;;;;17.70;15.77;;;;;;;;;;10094820;28;20420;-74
2024/02/02 10:19:33;;;;;;;18.83;15.82;;;;;;;;;;10097967;28;20049;-75
2024/02/02 10:24:32;;;;;;;20.98;15.65;;;;;;;;;;10101413;28;20380;-75
2024/02/02 10:29:49;;;;;;;20.83;18.08;;;;;;;;;;10098948;28;20151;-75
2024/02/02 10:34:47;;;;;;;20.02;17.25;;;;;;;;;;10101076;28;20379;-75
2024/02/02 10:39:45;;;;;;;18.13;15.77;;;;;;;;;;10096571;28;20049;-75
2024/02/02 10:45:12;;;;;;;18.90;16.02;;;;;;;;;;10089935;28;20336;-75
2024/02/02 10:50:35;;;;;;;19.23;17.15;;;;;;;;;;10099196;28;20045;-74
2024/02/02 10:55:50;;;;;;;18.92;16.45;;;;;;;;;;10091862;28;20127;-74
2024/02/02 11:01:12;;;;;;;22.27;16.88;;;;;;;;;;10098670;28;20213;-75
2024/02/02 11:06:49;;;;;;;21.60;15.95;;;;;;;;;;10092133;28;20102;-75
2024/02/02 11:11:45;;;;;;;19.80;15.32;;;;;;;;;;10092106;28;20041;-74
2024/02/02 11:16:59;;;;;;;17.92;15.98;;;;;;;;;;10095435;28;20049;-74
2024/02/02 11:22:10;;;;;;;18.58;15.70;;;;;;;;;;10097285;28;20041;-74
2024/02/02 11:27:07;;;;;;;18.27;15.65;;;;;;;;;;10092950;28;20049;-74
2024/02/02 11:32:37;;;;;;;19.45;14.43;;;;;;;;;;10097576;28;20387;-75
2024/02/02 11:37:36;;;;;;;15.32;12.93;;;;;;;;;;10099364;28;20119;-75
2024/02/02 11:42:29;;;;;;;17.85;14.63;;;;;;;;;;10099771;28;20044;-74
2024/02/02 11:47:22;;;;;;;20.92;15.55;;;;;;;;;;10097836;28;20106;-75
2024/02/02 11:52:21;;;;;;;21.88;16.35;;;;;;;;;;10090713;28;20120;-75
2024/02/02 11:57:15;;;;;;;;;;;;;;;;;;10091598;28;20104;-75
2024/02/02 12:02:25;;;;;;;18.60;15.18;;;;;;;;;;10098924;28;19928;-75
2024/02/02 12:07:17;;;;;;;19.50;15.57;;;;;;;;;;10100830;28;20056;-77
2024/02/02 12:12:36;;;;;;;15.68;13.70;;;;;;;;;;10106806;28;20542;-81
2024/02/02 12:17:29;;;;;;;17.85;13.57;;;;;;;;;;10103429;28;20037;-74
2024/02/02 12:22:21;;;;;;;15.35;12.65;;;;;;;;;;10101778;28;20048;-73
2024/02/02 12:27:14;;;;;;;14.73;13.05;;;;;;;;;;10105261;28;20048;-73
2024/02/02 12:32:09;;;;;;;20.70;15.38;;;;;;;;;;10106146;28;20072;-73
2024/02/02 12:37:01;;;;;;;17.75;14.05;;;;;;;;;;10105756;28;20052;-75
2024/02/02 12:41:55;;;;;;;20.67;15.13;;;;;;;;;;10104153;28;20136;-73
2024/02/02 12:46:47;;;;;;;21.95;15.07;;;;;;;;;;10105200;28;20432;-73
2024/02/02 12:51:39;;;;;;;20.95;15.73;;;;;;;;;;10103649;28;20071;-73
2024/02/02 12:56:31;;;;;;;18.88;16.05;;;;;;;;;;10105377;28;20067;-73
2024/02/02 13:01:24;;;;;;;22.20;17.02;;;;;;;;;;10104311;28;20040;-73
2024/02/02 13:06:16;;;;;;;22.42;17.27;;;;;;;;;;10105221;28;20057;-73
2024/02/02 13:11:23;;;;;;;22.45;18.40;;;;;;;;;;10103426;28;20041;-73
2024/02/02 13:16:23;;;;;;;19.98;15.98;;;;;;;;;;10106075;28;20115;-73
2024/02/02 13:21:27;;;;;;;22.23;15.88;;;;;;;;;;10093444;28;20464;-73
2024/02/02 13:26:21;;;;;;;19.67;16.13;;;;;;;;;;10103581;28;20415;-73
2024/02/02 13:31:15;;;;;;;21.48;17.50;;;;;;;;;;10103236;28;20049;-73
2024/02/02 13:36:09;;;;;;;20.95;16.90;;;;;;;;;;10102977;28;20052;-73
2024/02/02 13:41:02;;;;;;;20.63;17.80;;;;;;;;;;10102231;28;20045;-72
2024/02/02 13:46:05;;;;;;;28.58;19.85;;;;;;;;;;10103391;28;20567;-72
2024/02/02 13:51:00;;;;;;;24.98;17.52;;;;;;;;;;10098345;28;20056;-72
2024/02/02 13:55:53;;;;;;;21.67;18.08;;;;;;;;;;10103268;28;20037;-72
2024/02/02 14:00:45;;;;;;;21.20;18.45;;;;;;;;;;10102348;28;20048;-73
2024/02/02 14:05:42;;;;;;;23.33;18.35;;;;;;;;;;10103364;28;20419;-72
2024/02/02 14:10:44;;;;;;;23.13;18.50;;;;;;;;;;10101293;28;20037;-72
2024/02/02 14:15:39;;;;;;;22.83;18.50;;;;;;;;;;10101216;28;20083;-74
2024/02/02 14:20:31;;;;;;;23.83;18.13;;;;;;;;;;10097279;28;20467;-72
2024/02/02 14:25:28;;;;;;;23.73;20.05;;;;;;;;;;10101026;28;20079;-72
2024/02/02 14:30:20;;;;;;;26.23;18.65;;;;;;;;;;10101707;28;20059;-72
2024/02/02 14:35:13;;;;;;;25.15;18.73;;;;;;;;;;10101932;28;20045;-72
2024/02/02 14:40:06;;;;;;;30.38;22.75;;;;;;;;;;10101239;28;20053;-71
2024/02/02 14:44:58;;;;;;;33.75;21.98;;;;;;;;;;10101665;28;20383;-72
2024/02/02 14:49:51;;;;;;;27.30;21.80;;;;;;;;;;10093319;28;20048;-72
2024/02/02 14:54:46;;;;;;;28.63;22.35;;;;;;;;;;10101262;28;20040;-72
2024/02/02 14:59:42;;;;;;;27.30;22.45;;;;;;;;;;10101662;28;20045;-72
2024/02/02 15:04:34;;;;;;;28.45;23.35;;;;;;;;;;10100064;28;20053;-72
2024/02/02 15:09:27;;;;;;;37.90;24.33;;;;;;;;;;10100160;28;20128;-72
2024/02/02 15:14:19;;;;;;;31.75;21.92;;;;;;;;;;10098786;28;20095;-72
2024/02/02 15:19:11;;;;;;;27.50;21.30;;;;;;;;;;10097306;28;20040;-72
2024/02/02 15:24:03;;;;;;;31.35;21.90;;;;;;;;;;10098985;28;20060;-72
2024/02/02 15:28:55;;;;;;;37.15;24.55;;;;;;;;;;10099222;28;20051;-71
2024/02/02 15:33:47;;;;;;;30.38;23.77;;;;;;;;;;10098930;28;20076;-71
2024/02/02 15:38:40;;;;;;;35.10;24.50;;;;;;;;;;10099416;28;20155;-72
2024/02/02 15:43:54;;;;;;;32.53;23.33;;;;;;;;;;10105345;28;20128;-74
2024/02/02 15:48:46;;;;;;;30.95;23.30;;;;;;;;;;10098678;28;20053;-71
2024/02/02 15:53:38;;;;;;;65.13;52.70;;;;;;;;;;10107177;28;20037;-71
2024/02/02 15:58:31;;;;;;;54.17;34.88;;;;;;;;;;10105024;28;20461;-72
2024/02/02 16:03:24;;;;;;;30.25;25.08;;;;;;;;;;10108428;28;20473;-72
2024/02/02 16:08:16;;;;;;;43.38;33.08;;;;;;;;;;10106890;28;20773;-74
2024/02/02 16:13:07;;;;;;;63.15;48.80;;;;;;;;;;10092039;28;20053;-71
2024/02/02 16:18:00;;;;;;;168.40;125.25;;;;;;;;;;10107234;28;20132;-71
2024/02/02 16:22:52;;;;;;;79.03;53.88;;;;;;;;;;10097701;28;20059;-74
2024/02/02 16:27:44;;;;;;;95.70;66.40;;;;;;;;;;10106832;28;20055;-74
2024/02/02 16:32:36;;;;;;;52.72;37.28;;;;;;;;;;10106177;28;20083;-74
2024/02/02 16:37:28;;;;;;;45.20;30.73;;;;;;;;;;10106769;28;20033;-74
2024/02/02 16:42:21;;;;;;;82.53;68.85;;;;;;;;;;10096813;28;20475;-73
2024/02/02 16:47:12;;;;;;;37.13;29.55;;;;;;;;;;10102542;28;20094;-74
2024/02/02 16:52:05;;;;;;;50.63;38.85;;;;;;;;;;10096696;28;20049;-71
2024/02/02 16:56:57;;;;;;;67.45;42.47;;;;;;;;;;10103537;28;20094;-73
2024/02/02 17:01:49;;;;;;;81.63;51.05;;;;;;;;;;10104710;28;20084;-73
2024/02/02 17:06:41;;;;;;;54.10;34.92;;;;;;;;;;10103026;28;20066;-73
2024/02/02 17:11:33;;;;;;;85.93;51.42;;;;;;;;;;10105867;28;20124;-73
2024/02/02 17:16:25;;;;;;;70.10;41.65;;;;;;;;;;10104368;28;20045;-73
2024/02/02 17:21:17;;;;;;;51.30;36.50;;;;;;;;;;10098718;28;20033;-73
2024/02/02 17:26:16;;;;;;;285.08;156.50;;;;;;;;;;10089487;28;20128;-75
2024/02/02 17:31:12;;;;;;;53.38;37.33;;;;;;;;;;10105320;28;20048;-75
2024/02/02 17:36:11;;;;;;;80.85;56.78;;;;;;;;;;10104274;28;20045;-77
2024/02/02 17:41:13;;;;;;;200.57;133.77;;;;;;;;;;10102423;28;20075;-75
2024/02/02 17:46:06;;;;;;;84.10;58.38;;;;;;;;;;10103706;28;20037;-72
2024/02/02 17:50:58;;;;;;;172.10;128.13;;;;;;;;;;10096317;28;20049;-73
2024/02/02 17:55:50;;;;;;;117.32;86.93;;;;;;;;;;10102951;28;20072;-74
2024/02/02 18:00:42;;;;;;;80.25;60.28;;;;;;;;;;10103299;28;20041;-71
2024/02/02 18:05:34;;;;;;;80.00;60.72;;;;;;;;;;10097980;28;20053;-71
2024/02/02 18:10:26;;;;;;;69.72;52.75;;;;;;;;;;10103468;28;20080;-71
2024/02/02 18:15:19;;;;;;;59.22;43.53;;;;;;;;;;10103353;28;20052;-71
2024/02/02 18:20:12;;;;;;;69.47;49.90;;;;;;;;;;10104608;28;20044;-71
2024/02/02 18:25:05;;;;;;;71.25;50.78;;;;;;;;;;10102025;28;20045;-71
2024/02/02 18:29:57;;;;;;;96.80;74.60;;;;;;;;;;10102191;28;20302;-71
2024/02/02 18:34:49;;;;;;;93.32;61.45;;;;;;;;;;10101170;28;20237;-71
2024/02/02 18:51:40;;;;;;;72.90;49.05;;;;;;;;;;9842447;29;20047;-71
2024/02/02 18:56:32;;;;;;;39.15;30.55;;;;;;;;;;9854181;29;20138;-70
2024/02/02 19:01:26;;;;;;;35.85;30.15;;;;;;;;;;9867716;29;20044;-71
2024/02/02 19:06:18;;;;;;;40.10;32.75;;;;;;;;;;9867013;29;20044;-71
2024/02/02 19:11:13;;;;;;;39.80;28.92;;;;;;;;;;9867282;29;20067;-70
2024/02/02 19:16:18;;;;;;;41.42;29.77;;;;;;;;;;9859056;29;20418;-72
2024/02/02 19:21:20;;;;;;;46.22;34.60;;;;;;;;;;9866776;29;20060;-71
2024/02/02 19:26:13;;;;;;;41.25;33.67;;;;;;;;;;9866450;29;20043;-71
2024/02/02 19:31:05;;;;;;;47.78;32.03;;;;;;;;;;9865165;29;20059;-72
2024/02/02 19:35:57;;;;;;;34.03;29.75;;;;;;;;;;9862939;29;20494;-71
2024/02/02 19:40:49;;;;;;;38.25;29.15;;;;;;;;;;9862400;29;20094;-71
2024/02/02 19:45:41;;;;;;;36.13;30.25;;;;;;;;;;9853450;29;20052;-72
2024/02/02 19:50:33;;;;;;;38.50;28.65;;;;;;;;;;9862179;29;20103;-72
2024/02/02 19:55:29;;;;;;;35.33;28.80;;;;;;;;;;9862402;29;20501;-74
2024/02/02 20:00:22;;;;;;;36.50;26.73;;;;;;;;;;9864497;29;20043;-73
2024/02/02 20:05:14;;;;;;;30.17;25.13;;;;;;;;;;9863748;29;20138;-73
2024/02/02 20:10:08;;;;;;;29.77;22.33;;;;;;;;;;9867894;29;20052;-72
2024/02/02 20:15:00;;;;;;;29.83;23.23;;;;;;;;;;9857871;29;20130;-73
2024/02/02 20:19:53;;;;;;;29.60;23.67;;;;;;;;;;9861411;29;20063;-73
2024/02/02 20:24:45;;;;;;;32.17;22.40;;;;;;;;;;9845547;29;20111;-73
2024/02/02 20:29:38;;;;;;;35.47;27.33;;;;;;;;;;9869725;29;20131;-73
2024/02/02 20:34:31;;;;;;;36.08;29.13;;;;;;;;;;9870012;29;20047;-73
2024/02/02 20:39:24;;;;;;;29.27;22.02;;;;;;;;;;9869624;29;20374;-73
2024/02/02 20:44:16;;;;;;;30.85;22.40;;;;;;;;;;9864082;29;20052;-73
2024/02/02 20:49:08;;;;;;;28.85;23.02;;;;;;;;;;9864250;29;20058;-73
2024/02/02 20:54:00;;;;;;;24.38;19.13;;;;;;;;;;9870722;29;21142;-72
2024/02/02 20:58:52;;;;;;;27.00;18.75;;;;;;;;;;9870681;29;20420;-72
2024/02/02 21:03:44;;;;;;;21.65;17.98;;;;;;;;;;9871430;29;20039;-72
2024/02/02 21:08:37;;;;;;;22.90;17.45;;;;;;;;;;9860362;29;21096;-75
2024/02/02 21:13:29;;;;;;;20.48;17.58;;;;;;;;;;9864708;29;20056;-72
2024/02/02 21:18:23;;;;;;;20.90;17.20;;;;;;;;;;9861326;29;20485;-73
2024/02/02 21:23:17;;;;;;;26.00;19.90;;;;;;;;;;9870641;29;20444;-73
2024/02/02 21:28:09;;;;;;;33.80;25.15;;;;;;;;;;9867249;29;20043;-73
2024/02/02 21:33:01;;;;;;;49.95;31.88;;;;;;;;;;9872723;29;20055;-73
2024/02/02 21:37:53;;;;;;;21.48;16.85;;;;;;;;;;9867823;29;20058;-72
2024/02/02 21:42:46;;;;;;;17.15;14.68;;;;;;;;;;9866889;29;20788;-73
2024/02/02 21:47:38;;;;;;;20.15;12.77;;;;;;;;;;9846352;29;20463;-74
2024/02/02 21:52:30;;;;;;;21.92;14.30;;;;;;;;;;9871413;29;20418;-73
2024/02/02 21:57:22;;;;;;;28.38;16.00;;;;;;;;;;9869921;29;20052;-73
2024/02/02 22:02:14;;;;;;;20.27;16.77;;;;;;;;;;9869661;29;20043;-73
2024/02/02 22:07:06;;;;;;;15.75;11.82;;;;;;;;;;9851772;29;20056;-73
2024/02/02 22:11:58;;;;;;;12.52;11.07;;;;;;;;;;9869077;29;20043;-73
2024/02/02 22:16:50;;;;;;;12.85;10.73;;;;;;;;;;9860774;29;20050;-73
2024/02/02 22:21:42;;;;;;;12.73;10.82;;;;;;;;;;9868384;29;20047;-73
2024/02/02 22:26:34;;;;;;;15.45;11.40;;;;;;;;;;9866320;29;20048;-73
2024/02/02 22:31:26;;;;;;;14.02;11.30;;;;;;;;;;9866812;29;20175;-73
2024/02/02 22:36:23;;;;;;;18.75;13.65;;;;;;;;;;9865978;29;20047;-73
2024/02/02 22:41:22;;;;;;;20.98;14.23;;;;;;;;;;9867281;29;20119;-73
2024/02/02 22:46:25;;;;;;;23.70;18.05;;;;;;;;;;9851968;29;20048;-73
2024/02/02 22:51:17;;;;;;;11.85;9.98;;;;;;;;;;9866739;29;20058;-73
2024/02/02 22:56:09;;;;;;;13.02;9.90;;;;;;;;;;9867231;29;20047;-73
2024/02/02 23:01:01;;;;;;;12.55;10.40;;;;;;;;;;9867447;29;20131;-72
2024/02/02 23:05:54;;;;;;;12.05;8.27;;;;;;;;;;9869088;29;20058;-72
2024/02/02 23:10:46;;;;;;;17.98;15.30;;;;;;;;;;9855076;29;20147;-73
2024/02/02 23:15:37;;;;;;;27.40;16.63;;;;;;;;;;9859485;29;20040;-72
2024/02/02 23:20:29;;;;;;;15.23;12.23;;;;;;;;;;9868431;29;20107;-72
2024/02/02 23:25:21;;;;;;;10.35;8.60;;;;;;;;;;9869666;29;20048;-73
2024/02/02 23:30:13;;;;;;;16.33;13.18;;;;;;;;;;9868839;29;20047;-72
2024/02/02 23:35:06;;;;;;;18.88;13.73;;;;;;;;;;9869896;29;20451;-72
2024/02/02 23:39:58;;;;;;;11.55;8.80;;;;;;;;;;9868920;29;20052;-72
2024/02/02 23:44:50;;;;;;;13.65;10.75;;;;;;;;;;9868752;29;20051;-72
2024/02/02 23:49:42;;;;;;;15.40;11.52;;;;;;;;;;9868912;29;20107;-72
2024/02/02 23:54:34;;;;;;;17.10;14.48;;;;;;;;;;9869372;29;20505;-72
2024/02/02 23:59:26;;;;;;;9.68;8.27;;;;;;;;;;9868510;29;20039;-72
